createdAt,value
2023-10-14T00:01:49.824Z,6.50
2023-10-14T00:04:17.000Z,6.90
2023-10-14T00:06:44.134Z,6.88
2023-10-14T00:09:11.223Z,6.43
2023-10-14T00:11:38.313Z,6.57
2023-10-14T00:14:05.993Z,5.47
2023-10-14T00:16:33.133Z,6.20
2023-10-14T00:19:01.322Z,6.18
2023-10-14T00:21:28.969Z,6.70
2023-10-14T00:23:56.373Z,6.13
2023-10-14T00:26:27.462Z,6.15
2023-10-14T00:28:55.751Z,5.70
2023-10-14T00:31:23.717Z,6.10
2023-10-14T00:33:54.086Z,5.47
2023-10-14T00:36:24.513Z,5.85
2023-10-14T00:38:51.568Z,5.50
2023-10-14T00:41:18.605Z,6.82
2023-10-14T00:43:45.730Z,5.20
2023-10-14T00:46:13.845Z,4.30
2023-10-14T00:48:41.448Z,3.45
2023-10-14T00:51:09.980Z,4.07
2023-10-14T00:53:38.487Z,4.28
2023-10-14T00:56:06.529Z,4.05
2023-10-14T00:58:33.728Z,3.70
2023-10-14T01:01:00.876Z,4.85
2023-10-14T01:03:29.210Z,4.35
2023-10-14T01:05:57.029Z,3.10
2023-10-14T01:08:28.839Z,3.55
2023-10-14T01:10:57.625Z,4.63
2023-10-14T01:13:24.666Z,4.63
2023-10-14T01:15:51.931Z,4.20
2023-10-14T01:18:19.590Z,3.92
2023-10-14T01:20:46.640Z,4.40
2023-10-14T01:23:13.777Z,4.63
2023-10-14T01:25:41.545Z,4.72
2023-10-14T01:28:08.745Z,4.57
2023-10-14T01:30:37.480Z,5.43
2023-10-14T01:33:05.005Z,4.82
2023-10-14T01:35:32.085Z,5.43
2023-10-14T01:38:01.230Z,5.20
2023-10-14T01:40:30.568Z,5.93
2023-10-14T01:42:59.271Z,6.15
2023-10-14T01:45:27.370Z,4.95
2023-10-14T01:47:54.525Z,6.17
2023-10-14T01:50:21.645Z,5.72
2023-10-14T01:52:48.700Z,5.88
2023-10-14T01:55:15.802Z,5.78
2023-10-14T01:57:42.933Z,6.43
2023-10-14T02:00:10.252Z,6.80
2023-10-14T02:02:37.471Z,5.82
2023-10-14T02:05:04.948Z,6.30
2023-10-14T02:07:32.046Z,7.10
2023-10-14T02:09:59.210Z,6.68
2023-10-14T02:12:26.345Z,6.60
2023-10-14T02:14:53.447Z,6.93
2023-10-14T02:17:20.578Z,6.70
2023-10-14T02:19:47.665Z,6.45
2023-10-14T02:22:14.749Z,6.93
2023-10-14T02:24:41.904Z,7.20
2023-10-14T02:27:08.986Z,6.90
2023-10-14T02:29:36.036Z,7.43
2023-10-14T02:32:03.263Z,6.97
2023-10-14T02:34:30.333Z,7.57
2023-10-14T02:36:57.473Z,7.07
2023-10-14T02:39:24.632Z,7.45
2023-10-14T02:41:51.711Z,7.43
2023-10-14T02:44:18.760Z,7.10
2023-10-14T02:46:45.887Z,7.75
2023-10-14T02:49:16.568Z,7.13
2023-10-14T02:51:44.872Z,7.13
2023-10-14T02:54:16.506Z,7.75
2023-10-14T02:56:44.134Z,6.97
2023-10-14T02:59:12.560Z,6.25
2023-10-14T03:01:42.201Z,6.27
2023-10-14T03:04:09.375Z,6.13
2023-10-14T03:06:36.441Z,8.23
2023-10-14T03:09:03.635Z,7.18
2023-10-14T03:11:30.949Z,7.53
2023-10-14T03:13:58.096Z,5.57
2023-10-14T03:16:25.209Z,7.05
2023-10-14T03:18:52.384Z,5.85
2023-10-14T03:21:19.432Z,6.32
2023-10-14T03:23:46.564Z,6.40
2023-10-14T03:26:13.632Z,5.67
2023-10-14T03:28:41.690Z,7.00
2023-10-14T03:31:08.836Z,6.07
2023-10-14T03:33:36.286Z,6.50
2023-10-14T03:36:03.453Z,6.15
2023-10-14T03:38:31.380Z,5.83
2023-10-14T03:40:58.459Z,6.60
2023-10-14T03:43:25.519Z,6.72
2023-10-14T03:45:52.711Z,6.15
2023-10-14T03:48:19.784Z,6.65
2023-10-14T03:50:46.868Z,6.60
2023-10-14T03:53:14.654Z,7.00
2023-10-14T03:55:41.727Z,6.30
2023-10-14T03:58:08.846Z,5.53
2023-10-14T04:00:36.026Z,4.75
2023-10-14T04:03:03.197Z,5.03
2023-10-14T04:05:30.315Z,4.50
2023-10-14T04:07:57.427Z,5.03
2023-10-14T04:10:24.542Z,4.40
2023-10-14T04:12:51.683Z,4.70
2023-10-14T04:15:18.795Z,5.00
2023-10-14T04:17:45.933Z,4.03
2023-10-14T04:20:13.133Z,4.63
2023-10-14T04:22:40.272Z,5.07
2023-10-14T04:25:09.095Z,5.68
2023-10-14T04:27:36.601Z,5.53
2023-10-14T04:30:07.341Z,4.80
2023-10-14T04:32:34.443Z,5.60
2023-10-14T04:35:02.581Z,4.80
2023-10-14T04:37:29.679Z,5.47
2023-10-14T04:39:56.732Z,5.40
2023-10-14T04:42:23.819Z,6.03
2023-10-14T04:44:50.960Z,4.90
2023-10-14T04:47:18.137Z,6.55
2023-10-14T04:49:45.369Z,6.05
2023-10-14T04:52:12.501Z,6.60
2023-10-14T04:54:39.622Z,5.65
2023-10-14T04:57:06.674Z,5.70
2023-10-14T04:59:33.733Z,6.18
2023-10-14T05:02:00.757Z,7.28
2023-10-14T05:04:27.829Z,7.33
2023-10-14T05:06:55.068Z,7.50
2023-10-14T05:09:22.326Z,7.03
2023-10-14T05:11:49.542Z,7.25
2023-10-14T05:14:16.643Z,7.25
2023-10-14T05:16:45.462Z,6.23
2023-10-14T05:19:12.563Z,6.80
2023-10-14T05:21:39.722Z,7.53
2023-10-14T05:24:10.914Z,7.10
2023-10-14T05:26:38.815Z,7.25
2023-10-14T05:29:06.240Z,7.20
2023-10-14T05:31:33.339Z,7.40
2023-10-14T05:34:00.503Z,6.90
2023-10-14T05:36:27.612Z,7.68
2023-10-14T05:38:54.687Z,7.15
2023-10-14T05:41:21.728Z,6.87
2023-10-14T05:43:48.809Z,7.20
2023-10-14T05:46:15.969Z,7.93
2023-10-14T05:48:43.117Z,6.88
2023-10-14T05:51:10.241Z,7.28
2023-10-14T05:53:37.269Z,7.00
2023-10-14T05:56:04.686Z,7.55
2023-10-14T05:58:31.842Z,6.70
2023-10-14T06:00:58.962Z,6.20
2023-10-14T06:03:26.088Z,6.53
2023-10-14T06:05:53.160Z,5.57
2023-10-14T06:08:20.207Z,5.75
2023-10-14T06:10:47.265Z,7.03
2023-10-14T06:13:14.382Z,8.05
2023-10-14T06:15:43.153Z,7.57
2023-10-14T06:18:10.269Z,7.03
2023-10-14T06:20:37.838Z,6.78
2023-10-14T06:23:05.078Z,6.75
2023-10-14T06:25:32.146Z,6.35
2023-10-14T06:28:00.293Z,6.32
2023-10-14T06:30:30.643Z,6.93
2023-10-14T06:32:57.935Z,6.97
2023-10-14T06:35:25.641Z,7.47
2023-10-14T06:37:52.752Z,7.65
2023-10-14T06:40:19.982Z,6.80
2023-10-14T06:42:48.206Z,6.83
2023-10-14T06:45:16.052Z,7.07
2023-10-14T06:47:43.142Z,7.57
2023-10-14T06:50:10.405Z,7.40
2023-10-14T06:52:37.465Z,8.00
2023-10-14T06:55:04.801Z,7.90
2023-10-14T06:57:31.915Z,6.85
2023-10-14T06:59:58.962Z,6.60
2023-10-14T07:02:26.059Z,6.78
2023-10-14T07:04:53.470Z,6.22
2023-10-14T07:07:20.500Z,7.13
2023-10-14T07:09:47.575Z,6.90
2023-10-14T07:12:15.558Z,6.72
2023-10-14T07:14:43.617Z,7.28
2023-10-14T07:17:10.740Z,7.03
2023-10-14T07:19:37.880Z,6.53
2023-10-14T07:22:05.011Z,8.00
2023-10-14T07:24:32.136Z,7.57
2023-10-14T07:26:59.271Z,8.30
2023-10-14T07:29:26.304Z,7.32
2023-10-14T07:31:53.489Z,7.97
2023-10-14T07:34:20.797Z,8.73
2023-10-14T07:36:47.909Z,9.68
2023-10-14T07:39:15.069Z,8.35
2023-10-14T07:41:42.190Z,9.88
2023-10-14T07:44:09.238Z,9.03
2023-10-14T07:46:36.646Z,8.75
2023-10-14T07:49:04.017Z,10.57
2023-10-14T07:51:31.117Z,9.55
2023-10-14T07:53:58.431Z,9.90
2023-10-14T07:56:25.624Z,10.23
2023-10-14T07:58:52.716Z,11.60
2023-10-14T08:01:19.889Z,11.40
2023-10-14T08:03:47.079Z,10.85
2023-10-14T08:06:14.165Z,10.60
2023-10-14T08:08:41.230Z,8.50
2023-10-14T08:11:08.329Z,9.45
2023-10-14T08:13:35.490Z,8.57
2023-10-14T08:16:02.647Z,7.90
2023-10-14T08:18:30.217Z,8.70
2023-10-14T08:20:57.486Z,8.33
2023-10-14T08:23:29.152Z,9.07
2023-10-14T08:25:56.900Z,8.00
2023-10-14T08:28:25.404Z,7.47
2023-10-14T08:30:52.730Z,7.20
2023-10-14T08:33:21.516Z,6.50
2023-10-14T08:35:49.090Z,7.65
2023-10-14T08:38:16.395Z,7.03
2023-10-14T08:40:44.529Z,7.97
2023-10-14T08:43:14.675Z,7.20
2023-10-14T08:45:42.348Z,6.30
2023-10-14T08:48:10.114Z,6.47
2023-10-14T08:50:38.676Z,6.88
2023-10-14T08:53:07.948Z,6.53
2023-10-14T08:55:36.088Z,6.60
2023-10-14T08:58:04.891Z,7.50
2023-10-14T09:00:34.068Z,6.00
2023-10-14T09:03:01.257Z,6.15
2023-10-14T09:05:28.523Z,6.47
2023-10-14T09:07:56.579Z,7.07
2023-10-14T09:10:23.702Z,6.37
2023-10-14T09:13:02.102Z,7.30
2023-10-14T09:15:30.480Z,8.13
2023-10-14T09:17:57.962Z,6.85
2023-10-14T09:20:28.878Z,7.78
2023-10-14T09:23:17.115Z,7.60
2023-10-14T09:25:52.209Z,7.97
2023-10-14T09:28:20.479Z,6.68
2023-10-14T09:30:52.438Z,5.85
2023-10-14T09:33:34.632Z,6.30
2023-10-14T09:36:04.145Z,6.53
2023-10-14T09:38:31.592Z,6.53
2023-10-14T09:41:00.697Z,6.18
2023-10-14T09:43:28.147Z,5.60
2023-10-14T09:45:56.957Z,6.18
2023-10-14T09:48:25.822Z,5.70
2023-10-14T09:50:56.815Z,4.97
2023-10-14T09:53:25.711Z,4.65
2023-10-14T09:55:52.936Z,4.13
2023-10-14T09:58:23.351Z,4.35
2023-10-14T10:00:50.607Z,3.83
2023-10-14T10:03:19.862Z,4.00
2023-10-14T10:06:09.969Z,4.63
2023-10-14T10:08:52.045Z,4.38
2023-10-14T10:11:20.557Z,4.05
2023-10-14T10:13:47.643Z,3.90
2023-10-14T10:16:14.824Z,4.00
2023-10-14T10:18:58.656Z,3.85
2023-10-14T10:21:30.648Z,3.80
2023-10-14T10:24:18.923Z,3.83
2023-10-14T10:27:07.878Z,3.80
2023-10-14T10:29:52.100Z,3.50
2023-10-14T10:32:24.352Z,4.43
2023-10-14T10:35:06.851Z,3.85
2023-10-14T10:37:55.887Z,4.53
2023-10-14T10:40:28.321Z,3.90
2023-10-14T10:43:06.005Z,3.88
2023-10-14T10:45:37.575Z,4.00
2023-10-14T10:48:11.316Z,4.22
2023-10-14T10:50:40.283Z,3.50
2023-10-14T10:53:07.296Z,3.70
2023-10-14T10:55:35.836Z,3.50
2023-10-14T10:58:03.881Z,4.30
2023-10-14T11:00:31.965Z,3.85
2023-10-14T11:02:59.891Z,4.38
2023-10-14T11:05:27.656Z,4.50
2023-10-14T11:07:56.142Z,4.65
2023-10-14T11:10:31.407Z,4.13
2023-10-14T11:12:59.522Z,3.65
2023-10-14T11:15:28.646Z,4.18
2023-10-14T11:18:00.692Z,3.93
2023-10-14T11:20:35.425Z,3.80
2023-10-14T11:23:04.661Z,4.00
2023-10-14T11:25:32.021Z,4.38
2023-10-14T11:27:59.318Z,5.40
2023-10-14T11:30:27.486Z,3.90
2023-10-14T11:32:55.391Z,4.32
2023-10-14T11:35:23.311Z,4.05
2023-10-14T11:37:58.364Z,4.50
2023-10-14T11:40:36.951Z,6.00
2023-10-14T11:43:07.872Z,4.63
2023-10-14T11:45:37.630Z,5.45
2023-10-14T11:48:05.129Z,5.53
2023-10-14T11:50:35.071Z,4.65
2023-10-14T11:53:02.889Z,5.30
2023-10-14T11:55:30.123Z,4.87
2023-10-14T11:57:57.255Z,4.22
2023-10-14T12:00:24.408Z,4.45
2023-10-14T12:02:52.007Z,4.50
2023-10-14T12:05:19.810Z,4.55
2023-10-14T12:07:50.902Z,5.80
2023-10-14T12:10:18.603Z,5.22
2023-10-14T12:12:46.063Z,5.05
2023-10-14T12:15:13.136Z,5.35
2023-10-14T12:17:40.230Z,4.82
2023-10-14T12:20:07.745Z,5.63
2023-10-14T12:22:34.875Z,4.88
2023-10-14T12:25:02.050Z,5.78
2023-10-14T12:27:29.177Z,5.65
2023-10-14T12:29:56.810Z,4.88
2023-10-14T12:32:24.030Z,4.93
2023-10-14T12:34:51.247Z,4.57
2023-10-14T12:37:18.400Z,4.53
2023-10-14T12:39:49.705Z,5.30
2023-10-14T12:42:20.916Z,4.80
2023-10-14T12:44:49.349Z,5.37
2023-10-14T12:47:16.454Z,5.45
2023-10-14T12:49:43.619Z,5.10
2023-10-14T12:52:10.730Z,5.03
2023-10-14T12:54:37.807Z,5.20
2023-10-14T12:57:04.956Z,5.67
2023-10-14T12:59:31.977Z,5.22
2023-10-14T13:01:59.183Z,5.75
2023-10-14T13:04:26.516Z,5.10
2023-10-14T13:06:54.320Z,6.13
2023-10-14T13:09:21.482Z,5.30
2023-10-14T13:11:48.889Z,5.55
2023-10-14T13:14:16.044Z,6.68
2023-10-14T13:16:43.209Z,5.45
2023-10-14T13:19:10.410Z,5.78
2023-10-14T13:21:37.772Z,5.77
2023-10-14T13:24:05.057Z,5.20
2023-10-14T13:26:32.154Z,5.47
2023-10-14T13:28:59.211Z,5.70
2023-10-14T13:31:26.356Z,5.72
2023-10-14T13:33:53.485Z,5.43
2023-10-14T13:36:20.877Z,5.43
2023-10-14T13:38:48.425Z,5.32
2023-10-14T13:41:16.561Z,4.78
2023-10-14T13:43:44.913Z,5.15
2023-10-14T13:46:12.831Z,5.17
2023-10-14T13:48:40.110Z,5.63
2023-10-14T13:51:07.541Z,5.75
2023-10-14T13:53:34.731Z,5.38
2023-10-14T13:56:05.079Z,6.45
2023-10-14T13:58:33.315Z,6.00
2023-10-14T14:01:00.382Z,5.60
2023-10-14T14:03:27.525Z,5.13
2023-10-14T14:05:54.754Z,5.10
2023-10-14T14:08:22.137Z,6.60
2023-10-14T14:10:49.207Z,5.83
2023-10-14T14:13:16.323Z,6.28
2023-10-14T14:15:44.198Z,5.28
2023-10-14T14:18:11.708Z,5.95
2023-10-14T14:20:38.830Z,5.45
2023-10-14T14:23:05.859Z,5.30
2023-10-14T14:25:34.254Z,4.82
2023-10-14T14:28:01.570Z,4.95
2023-10-14T14:30:29.115Z,6.40
2023-10-14T14:32:56.444Z,6.40
2023-10-14T14:35:24.911Z,5.57
2023-10-14T14:37:52.236Z,5.32
2023-10-14T14:40:19.775Z,5.07
2023-10-14T14:42:46.916Z,5.93
2023-10-14T14:45:18.972Z,5.30
2023-10-14T14:47:46.305Z,5.07
2023-10-14T14:50:13.374Z,5.72
2023-10-14T14:52:41.313Z,5.13
2023-10-14T14:55:09.276Z,6.32
2023-10-14T14:57:36.578Z,6.50
2023-10-14T15:00:04.022Z,4.60
2023-10-14T15:02:31.257Z,5.60
2023-10-14T15:04:58.336Z,5.40
2023-10-14T15:07:25.474Z,6.13
2023-10-14T15:09:52.572Z,5.68
2023-10-14T15:12:19.640Z,5.50
2023-10-14T15:14:46.701Z,5.43
2023-10-14T15:17:13.870Z,6.18
2023-10-14T15:19:41.029Z,6.40
2023-10-14T15:22:08.131Z,5.35
2023-10-14T15:24:35.352Z,5.20
2023-10-14T15:27:02.391Z,5.18
2023-10-14T15:29:29.423Z,5.00
2023-10-14T15:31:56.602Z,5.65
2023-10-14T15:34:23.716Z,5.57
2023-10-14T15:36:50.786Z,5.70
2023-10-14T15:39:17.872Z,6.28
2023-10-14T15:41:44.908Z,5.45
2023-10-14T15:44:13.207Z,5.53
2023-10-14T15:46:40.398Z,5.35
2023-10-14T15:49:07.531Z,5.43
2023-10-14T15:51:34.608Z,5.40
2023-10-14T15:54:01.885Z,6.05
2023-10-14T15:56:28.935Z,5.43
2023-10-14T15:58:56.357Z,5.55
2023-10-14T16:01:23.782Z,5.73
2023-10-14T16:03:50.895Z,6.18
2023-10-14T16:06:17.989Z,5.93
2023-10-14T16:08:45.160Z,6.47
2023-10-14T16:11:12.215Z,5.95
2023-10-14T16:13:39.268Z,6.80
2023-10-14T16:16:06.422Z,5.70
2023-10-14T16:18:33.518Z,6.55
2023-10-14T16:21:00.585Z,6.65
2023-10-14T16:23:27.689Z,5.95
2023-10-14T16:25:54.742Z,7.40
2023-10-14T16:28:21.886Z,5.43
2023-10-14T16:30:49.025Z,5.72
2023-10-14T16:33:16.121Z,5.93
2023-10-14T16:35:43.249Z,5.53
2023-10-14T16:38:10.347Z,5.80
2023-10-14T16:40:38.210Z,5.28
2023-10-14T16:43:06.972Z,4.97
2023-10-14T16:45:35.743Z,5.65
2023-10-14T16:48:04.121Z,6.28
2023-10-14T16:50:31.236Z,5.53
2023-10-14T16:52:58.772Z,5.20
2023-10-14T16:55:26.713Z,6.05
2023-10-14T16:57:54.777Z,5.50
2023-10-14T17:00:24.555Z,5.10
2023-10-14T17:02:53.966Z,6.83
2023-10-14T17:05:22.007Z,10.35
2023-10-14T17:07:53.568Z,9.27
2023-10-14T17:10:21.608Z,6.85
2023-10-14T17:12:49.644Z,8.45
2023-10-14T17:15:18.149Z,6.73
2023-10-14T17:17:48.555Z,6.57
2023-10-14T17:20:16.466Z,5.65
2023-10-14T17:22:44.616Z,5.55
2023-10-14T17:25:12.310Z,6.28
2023-10-14T17:27:40.594Z,5.53
2023-10-14T17:30:09.013Z,6.43
2023-10-14T17:32:36.771Z,7.15
2023-10-14T17:35:04.530Z,9.75
2023-10-14T17:37:31.649Z,6.40
2023-10-14T17:39:58.966Z,8.27
2023-10-14T17:42:26.520Z,7.03
2023-10-14T17:44:53.848Z,6.35
2023-10-14T17:47:21.012Z,5.55
2023-10-14T17:49:48.106Z,7.57
2023-10-14T17:52:15.237Z,11.57
2023-10-14T17:54:42.273Z,8.93
2023-10-14T17:57:09.318Z,7.28
2023-10-14T17:59:36.400Z,6.47
2023-10-14T18:02:03.683Z,6.38
2023-10-14T18:04:30.894Z,5.67
2023-10-14T18:06:58.273Z,7.32
2023-10-14T18:09:25.543Z,7.57
2023-10-14T18:11:52.740Z,8.98
2023-10-14T18:14:20.419Z,7.70
2023-10-14T18:17:00.600Z,9.23
2023-10-14T18:19:30.487Z,9.43
2023-10-14T18:21:57.575Z,9.30
2023-10-14T18:24:24.675Z,7.43
2023-10-14T18:26:51.783Z,8.23
2023-10-14T18:29:20.675Z,7.17
2023-10-14T18:31:49.844Z,7.25
2023-10-14T18:34:17.013Z,6.07
2023-10-14T18:36:44.084Z,6.18
2023-10-14T18:39:11.121Z,6.10
2023-10-14T18:41:38.293Z,5.87
2023-10-14T18:44:06.201Z,6.53
2023-10-14T18:46:33.302Z,5.10
2023-10-14T18:49:00.582Z,5.75
2023-10-14T18:51:27.693Z,6.50
2023-10-14T18:53:55.357Z,5.87
2023-10-14T18:56:23.228Z,6.05
2023-10-14T18:58:50.672Z,6.35
2023-10-14T19:01:17.919Z,6.07
2023-10-14T19:03:45.178Z,6.22
2023-10-14T19:06:12.330Z,6.10
2023-10-14T19:08:39.396Z,7.68
2023-10-14T19:11:08.346Z,6.05
2023-10-14T19:13:36.210Z,7.22
2023-10-14T19:16:03.787Z,7.88
2023-10-14T19:18:30.864Z,6.70
2023-10-14T19:21:02.809Z,7.00
2023-10-14T19:23:30.181Z,6.70
2023-10-14T19:25:59.264Z,6.20
2023-10-14T19:28:27.668Z,6.70
2023-10-14T19:31:03.267Z,6.23
2023-10-14T19:33:30.624Z,5.97
2023-10-14T19:36:01.303Z,5.38
2023-10-14T19:38:28.397Z,6.53
2023-10-14T19:41:03.025Z,6.57
2023-10-14T19:43:32.915Z,5.37
2023-10-14T19:46:00.957Z,5.18
2023-10-14T19:48:28.436Z,5.65
2023-10-14T19:50:55.521Z,5.57
2023-10-14T19:53:22.577Z,4.90
2023-10-14T19:55:50.040Z,5.07
2023-10-14T19:58:17.266Z,5.85
2023-10-14T20:00:44.778Z,5.32
2023-10-14T20:03:13.064Z,3.92
2023-10-14T20:05:42.235Z,5.15
2023-10-14T20:08:09.546Z,5.17
2023-10-14T20:10:37.938Z,5.75
2023-10-14T20:13:14.291Z,5.35
2023-10-14T20:15:42.690Z,5.57
2023-10-14T20:18:10.954Z,5.82
2023-10-14T20:20:38.755Z,5.20
2023-10-14T20:23:06.766Z,5.05
2023-10-14T20:25:33.909Z,5.00
2023-10-14T20:28:01.314Z,5.13
2023-10-14T20:30:29.742Z,5.35
2023-10-14T20:32:59.722Z,4.53
2023-10-14T20:35:30.767Z,5.60
2023-10-14T20:37:57.983Z,5.50
2023-10-14T20:40:26.218Z,5.25
2023-10-14T20:42:53.484Z,5.13
2023-10-14T20:45:21.919Z,5.93
2023-10-14T20:47:49.677Z,5.25
2023-10-14T20:50:17.372Z,5.18
2023-10-14T20:52:45.886Z,5.10
2023-10-14T20:55:13.034Z,6.90
2023-10-14T20:57:40.190Z,5.60
2023-10-14T21:00:08.044Z,5.22
2023-10-14T21:02:35.412Z,5.35
2023-10-14T21:05:02.562Z,5.55
2023-10-14T21:07:29.682Z,5.38
2023-10-14T21:09:56.735Z,5.90
2023-10-14T21:12:23.883Z,5.82
2023-10-14T21:14:50.962Z,5.82
2023-10-14T21:17:18.077Z,5.97
2023-10-14T21:19:45.208Z,5.85
2023-10-14T21:22:12.342Z,6.37
2023-10-14T21:24:39.410Z,7.60
2023-10-14T21:27:06.482Z,6.00
2023-10-14T21:29:33.521Z,5.63
2023-10-14T21:32:00.646Z,5.97
2023-10-14T21:34:28.097Z,6.00
2023-10-14T21:36:55.217Z,6.50
2023-10-14T21:39:22.261Z,5.35
2023-10-14T21:41:49.353Z,5.88
2023-10-14T21:44:16.389Z,5.88
2023-10-14T21:46:43.480Z,5.83
2023-10-14T21:49:10.607Z,6.00
2023-10-14T21:51:37.659Z,7.32
2023-10-14T21:54:05.028Z,6.97
2023-10-14T21:56:32.336Z,6.60
2023-10-14T21:58:59.404Z,6.63
2023-10-14T22:01:26.653Z,5.88
2023-10-14T22:03:54.433Z,6.70
2023-10-14T22:06:21.761Z,5.93
2023-10-14T22:08:48.797Z,6.45
2023-10-14T22:11:15.951Z,5.70
2023-10-14T22:13:43.008Z,6.57
2023-10-14T22:16:10.779Z,6.80
2023-10-14T22:18:39.347Z,6.15
2023-10-14T22:21:06.839Z,6.63
2023-10-14T22:23:35.417Z,7.07
2023-10-14T22:26:03.229Z,6.75
2023-10-14T22:28:30.393Z,6.65
2023-10-14T22:30:57.704Z,6.20
2023-10-14T22:33:24.785Z,6.57
2023-10-14T22:35:51.835Z,6.17
2023-10-14T22:38:18.901Z,6.43
2023-10-14T22:40:46.109Z,6.20
2023-10-14T22:43:13.198Z,6.10
2023-10-14T22:45:40.366Z,6.45
2023-10-14T22:48:08.208Z,5.83
2023-10-14T22:50:35.692Z,6.50
2023-10-14T22:53:03.277Z,7.18
2023-10-14T22:55:33.386Z,6.75
2023-10-14T22:58:02.017Z,7.15
2023-10-14T23:00:29.097Z,6.57
2023-10-14T23:02:57.567Z,6.72
2023-10-14T23:05:28.013Z,6.70
2023-10-14T23:07:55.988Z,6.88
2023-10-14T23:10:23.688Z,5.50
2023-10-14T23:12:52.115Z,6.70
2023-10-14T23:15:23.279Z,7.53
2023-10-14T23:17:50.404Z,7.80
2023-10-14T23:20:18.347Z,8.23
2023-10-14T23:22:45.550Z,9.20
2023-10-14T23:25:14.224Z,8.30
2023-10-14T23:27:44.499Z,9.02
2023-10-14T23:30:15.402Z,8.73
2023-10-14T23:32:45.491Z,8.95
2023-10-14T23:35:13.276Z,9.68
2023-10-14T23:37:40.446Z,6.97
2023-10-14T23:40:08.171Z,8.27
2023-10-14T23:42:35.342Z,8.88
2023-10-14T23:45:03.608Z,8.18
2023-10-14T23:47:32.676Z,8.73
2023-10-14T23:49:59.849Z,8.63
2023-10-14T23:52:26.966Z,8.60
2023-10-14T23:54:54.041Z,9.85
2023-10-14T23:57:21.074Z,8.75
2023-10-14T23:59:48.469Z,9.48
